»·PEaware :: N285SR KGEG-KHQM

N285SR :: KGEG-KHQM

FLIGHT INFORMATION

Flight Status: Arrived
Operator: Privately registered:
United States
More flights under this callsign
Pilot: Scott R. (20908)
Aircraft: CESSNA 510 CITATION MUSTANG
(C510)
More flights by this aircraft type
Origin: KGEG Spokane Intl
United States
Destination: KHQM Bowerman
United States
More flights between these airports :: More routes between these airports
Route: +GEG6 GEG V2 MWH J34 OLM V204 HQM
File this flight plan on PilotEdge
Remarks:
Altitude:
(Current/Filed)
26,000ft
Speed:
(Current/Filed)
300kts
Departed: 02-Jun-20 10:44 AM
Arrived: 02-Jun-20 11:48 AM
Distance/Time
Traveled:
263nm/1:04
Distance/Time
To Go:
Arrived

Flight Plot

Page will automatically refresh every two minutes.

Flight plan parsing failed; only flown route is shown


Map Options




Map Legend


Flown Route
Filed Route
Departure Airport
Arrival Airport
Navaid (VOR, NDB)
Fix

Horizontal Profiles

Position Reports

Time Latitude Longitude Heading Altitude Ground
Speed
02-Jun-20 10:23 47.620970 -117.526847 154 2388ft 0kts
02-Jun-20 10:24 47.620970 -117.526847 154 2388ft 0kts
02-Jun-20 10:25 47.620970 -117.526847 154 2388ft 0kts
02-Jun-20 10:26 47.620970 -117.526847 154 2388ft 0kts
02-Jun-20 10:27 47.620970 -117.526847 154 2388ft 0kts
02-Jun-20 10:28 47.620970 -117.526847 154 2388ft 0kts
02-Jun-20 10:29 47.620970 -117.526847 154 2388ft 0kts
02-Jun-20 10:30 47.620970 -117.526847 154 2388ft 0kts
02-Jun-20 10:31 47.620970 -117.526847 154 2388ft 0kts
02-Jun-20 10:32 47.620970 -117.526847 154 2388ft 0kts
02-Jun-20 10:33 47.620970 -117.526847 154 2388ft 0kts
02-Jun-20 10:34 47.620970 -117.526847 154 2388ft 0kts
02-Jun-20 10:35 47.620970 -117.526847 154 2388ft 0kts
02-Jun-20 10:36 47.620970 -117.526847 154 2388ft 0kts
02-Jun-20 10:37 47.620970 -117.526847 154 2388ft 0kts
02-Jun-20 10:38 47.620928 -117.526978 275 2388ft 1kts
02-Jun-20 10:39 47.621341 -117.529019 345 2388ft 7kts
02-Jun-20 10:40 47.624373 -117.525104 44 2388ft 14kts
02-Jun-20 10:41 47.627985 -117.519597 45 2388ft 14kts
02-Jun-20 10:42 47.630721 -117.517797 317 2388ft 10kts
02-Jun-20 10:43 47.615661 -117.541637 226 2968ft 154kts
02-Jun-20 10:44 47.576400 -117.598165 224 6050ft 220kts
02-Jun-20 10:45 47.545463 -117.668651 255 10011ft 220kts
02-Jun-20 10:46 47.531417 -117.755354 255 13620ft 220kts
02-Jun-20 10:47 47.517254 -117.844154 255 16492ft 225kts
02-Jun-20 10:48 47.502464 -117.935418 252 18563ft 231kts
02-Jun-20 10:49 47.483603 -118.027314 252 20475ft 237kts
02-Jun-20 10:50 47.464302 -118.121228 253 22215ft 242kts
02-Jun-20 10:51 47.444766 -118.215770 254 24124ft 234kts
02-Jun-20 10:52 47.425540 -118.308708 254 25649ft 240kts
02-Jun-20 10:53 47.405262 -118.406482 254 26221ft 262kts
02-Jun-20 10:54 47.382952 -118.513136 254 26218ft 279kts
02-Jun-20 10:55 47.359515 -118.624319 254 26215ft 287kts
02-Jun-20 10:56 47.335708 -118.736812 253 26221ft 291kts
02-Jun-20 10:57 47.311255 -118.851746 253 26216ft 293kts
02-Jun-20 10:58 47.286594 -118.966954 253 26202ft 294kts
02-Jun-20 10:59 47.261840 -119.081767 253 26191ft 294kts
02-Jun-20 11:00 47.236994 -119.196654 253 26190ft 294kts
02-Jun-20 11:01 47.212128 -119.311302 255 26187ft 293kts
02-Jun-20 11:02 47.205147 -119.430821 265 26188ft 293kts
02-Jun-20 11:03 47.198479 -119.550294 265 26187ft 292kts
02-Jun-20 11:04 47.191844 -119.669655 264 26193ft 292kts
02-Jun-20 11:05 47.185173 -119.788714 264 26193ft 293kts
02-Jun-20 11:06 47.178353 -119.908451 264 26192ft 293kts
02-Jun-20 11:07 47.171411 -120.028101 264 26193ft 293kts
02-Jun-20 11:08 47.164363 -120.147257 264 26195ft 292kts
02-Jun-20 11:09 47.157211 -120.266085 264 26198ft 291kts
02-Jun-20 11:10 47.149949 -120.384781 264 26197ft 291kts
02-Jun-20 11:11 47.142588 -120.503034 264 26196ft 291kts
02-Jun-20 11:12 47.135087 -120.621487 264 26195ft 291kts
02-Jun-20 11:13 47.127490 -120.739224 263 25908ft 294kts
02-Jun-20 11:14 47.119734 -120.858635 263 24813ft 293kts
02-Jun-20 11:15 47.111964 -120.975925 263 24196ft 279kts
02-Jun-20 11:16 47.103902 -121.094870 263 24031ft 304kts
02-Jun-20 11:17 47.095568 -121.216522 263 23112ft 296kts
02-Jun-20 11:18 47.087210 -121.336544 263 22185ft 294kts
02-Jun-20 11:19 47.078776 -121.456105 263 21256ft 294kts
02-Jun-20 11:20 47.070425 -121.575354 263 20323ft 294kts
02-Jun-20 11:22 47.062171 -121.694596 262 19402ft 294kts
02-Jun-20 11:23 47.053773 -121.814135 262 18506ft 295kts
02-Jun-20 11:24 47.045244 -121.933829 262 17603ft 295kts
02-Jun-20 11:25 47.036529 -122.053772 262 16696ft 293kts
02-Jun-20 11:26 47.027924 -122.171940 262 15984ft 286kts
02-Jun-20 11:27 47.019510 -122.285168 262 15988ft 277kts
02-Jun-20 11:28 47.010996 -122.397949 262 15987ft 278kts
02-Jun-20 11:29 47.002408 -122.510402 262 15986ft 277kts
02-Jun-20 11:30 46.993702 -122.622639 262 15985ft 275kts
02-Jun-20 11:31 46.984916 -122.734126 262 15991ft 276kts
02-Jun-20 11:32 46.976019 -122.846568 262 15991ft 279kts
02-Jun-20 11:33 46.970983 -122.958581 266 15179ft 258kts
02-Jun-20 11:34 46.969466 -123.058423 266 13554ft 239kts
02-Jun-20 11:35 46.967955 -123.152595 265 11652ft 227kts
02-Jun-20 11:35 46.966499 -123.228105 266 10049ft 216kts
02-Jun-20 11:37 46.967067 -123.329227 269 7984ft 209kts
02-Jun-20 11:38 46.967846 -123.410257 269 6154ft 193kts
02-Jun-20 11:38 46.968314 -123.473786 269 4754ft 170kts
02-Jun-20 11:40 46.968905 -123.547736 270 4230ft 168kts
02-Jun-20 11:40 46.969300 -123.600644 270 3962ft 141kts
02-Jun-20 11:41 46.971793 -123.656623 279 3723ft 141kts
02-Jun-20 11:43 46.981203 -123.722010 280 2946ft 136kts
02-Jun-20 11:43 46.986561 -123.766249 275 2171ft 126kts
02-Jun-20 11:44 46.985438 -123.816599 260 1562ft 125kts
02-Jun-20 11:45 46.980143 -123.863898 256 1051ft 117kts
02-Jun-20 11:46 46.974773 -123.907834 255 353ft 95kts
02-Jun-20 11:47 46.970885 -123.939439 285 23ft 9kts
02-Jun-20 11:48 46.972103 -123.937672 82 23ft 11kts
02-Jun-20 11:49 46.972799 -123.932005 78 23ft 17kts
02-Jun-20 11:50 46.973583 -123.930846 118 23ft 0kts
02-Jun-20 11:51 46.973583 -123.930846 118 23ft 0kts
02-Jun-20 11:52 46.973583 -123.930846 118 23ft 0kts

Navigation Log

Ident Type
Flight plan parsing failed, navigation log unavailable